Time;durP1;ratioP1;P1;durP2;ratioP2;P2;SDS_P1;SDS_P2;PMS_P1;PMS_P2;Temp;Humidity;BMP_temperature;BMP_pressure;BME280_temperature;BME280_humidity;BME280_pressure;Samples;Min_cycle;Max_cycle;Signal;HPM_P1;HPM_P2
2023/04/23 00:01:17;;;;;;;;;15.25;11.25;;;;;12.16;72.43;99086.97;5096380;28;8846;-61
2023/04/23 00:03:45;;;;;;;;;17.00;12.50;;;;;12.11;72.80;99083.91;5097616;28;8806;-61
2023/04/23 00:06:13;;;;;;;;;16.00;13.50;;;;;12.08;72.67;99078.88;5097741;28;8907;-61
2023/04/23 00:08:41;;;;;;;;;18.75;15.25;;;;;12.06;72.74;99083.50;5097324;28;8854;-61
2023/04/23 00:11:09;;;;;;;;;22.25;18.75;;;;;12.02;72.53;99082.16;5097019;28;9439;-59
2023/04/23 00:13:37;;;;;;;;;21.00;19.50;;;;;11.99;72.52;99085.13;5077146;28;8828;-60
2023/04/23 00:16:04;;;;;;;;;17.00;13.50;;;;;11.97;72.31;99095.09;5077138;28;8816;-60
2023/04/23 00:18:32;;;;;;;;;16.50;15.00;;;;;11.93;72.74;99085.75;5076557;28;8960;-61
2023/04/23 00:21:00;;;;;;;;;12.00;12.00;;;;;11.92;72.45;99085.88;5076858;28;8848;-60
2023/04/23 00:23:28;;;;;;;;;17.00;16.50;;;;;11.90;72.91;99088.69;5076576;28;8816;-61
2023/04/23 00:25:56;;;;;;;;;17.25;14.00;;;;;11.90;72.64;99093.22;5076909;28;9609;-61
2023/04/23 00:28:24;;;;;;;;;16.00;14.00;;;;;11.87;72.49;99091.69;5085812;28;8834;-61
2023/04/23 00:30:51;;;;;;;;;19.50;16.50;;;;;11.84;72.47;99083.97;5096117;28;8841;-60
2023/04/23 00:33:19;;;;;;;;;19.50;18.50;;;;;11.82;72.82;99080.63;5097071;28;8890;-61
2023/04/23 00:35:47;;;;;;;;;18.50;18.00;;;;;11.80;73.00;99087.06;5096919;28;8883;-59
2023/04/23 00:38:15;;;;;;;;;21.00;19.75;;;;;11.77;72.73;99072.25;5095457;28;9739;-61
2023/04/23 00:40:43;;;;;;;;;17.50;15.50;;;;;11.75;72.91;99079.53;5095225;28;8854;-61
2023/04/23 00:43:11;;;;;;;;;24.25;20.00;;;;;11.74;72.45;99072.53;5096940;28;8850;-59
2023/04/23 00:45:38;;;;;;;;;20.00;19.00;;;;;11.72;72.93;99071.00;5097015;28;8817;-59
2023/04/23 00:48:07;;;;;;;;;19.00;17.00;;;;;11.69;72.85;99061.47;5096297;28;8822;-60
2023/04/23 00:50:36;;;;;;;;;27.50;26.00;;;;;11.67;72.44;99071.44;5096435;28;8857;-59
2023/04/23 00:53:03;;;;;;;;;14.00;13.50;;;;;11.66;72.85;99080.44;5096499;28;8862;-61
2023/04/23 00:55:31;;;;;;;;;21.00;19.00;;;;;11.64;72.45;99076.25;5096047;28;8830;-61
2023/04/23 00:57:59;;;;;;;;;18.75;17.00;;;;;11.62;72.84;99080.91;5096055;28;8814;-60
2023/04/23 01:00:27;;;;;;;;;21.00;17.25;;;;;11.60;72.57;99075.69;5096190;28;8853;-60
2023/04/23 01:02:57;;;;;;;;;21.50;19.75;;;;;11.58;72.92;99072.34;5096618;28;9516;-60
2023/04/23 01:05:24;;;;;;;;;13.50;12.25;;;;;11.58;73.04;99077.69;5096322;28;8899;-61
2023/04/23 01:07:52;;;;;;;;;25.00;22.00;;;;;11.57;72.42;99078.66;5096426;28;8826;-60
2023/04/23 01:10:20;;;;;;;;;18.75;16.25;;;;;11.56;72.96;99071.63;5096256;28;8833;-60
2023/04/23 01:12:48;;;;;;;;;21.50;19.50;;;;;11.56;72.59;99079.63;5096050;28;8822;-61
2023/04/23 01:15:16;;;;;;;;;13.00;12.25;;;;;11.57;72.61;99085.78;5096401;28;8822;-60
2023/04/23 01:17:44;;;;;;;;;22.25;18.75;;;;;11.56;72.57;99079.63;5096188;28;8810;-61
2023/04/23 01:20:12;;;;;;;;;18.50;14.50;;;;;11.55;73.11;99082.44;5096363;28;8833;-59
2023/04/23 01:22:39;;;;;;;;;8.50;8.00;;;;;11.54;72.54;99078.91;5096116;28;8834;-61
2023/04/23 01:25:07;;;;;;;;;22.00;20.50;;;;;11.53;72.67;99077.25;5096078;28;8848;-61
2023/04/23 01:27:36;;;;;;;;;20.50;18.75;;;;;11.53;72.33;99073.75;5096096;28;8798;-59
2023/04/23 01:30:04;;;;;;;;;24.50;20.75;;;;;11.51;73.01;99073.91;5095465;28;8857;-61
2023/04/23 01:32:32;;;;;;;;;21.50;18.50;;;;;11.53;72.62;99073.75;5096294;28;8822;-61
2023/04/23 01:35:00;;;;;;;;;20.50;17.50;;;;;11.53;72.11;99074.59;5096356;28;8825;-62
2023/04/23 01:37:27;;;;;;;;;19.50;15.25;;;;;11.54;72.23;99072.78;5096049;28;8826;-61
2023/04/23 01:39:56;;;;;;;;;21.00;17.50;;;;;11.52;72.26;99072.91;5096313;28;8822;-60
2023/04/23 01:42:23;;;;;;;;;18.25;15.50;;;;;11.53;72.16;99069.25;5096037;28;8840;-61
2023/04/23 01:44:51;;;;;;;;;21.50;20.00;;;;;11.54;72.35;99075.44;5096347;28;9503;-61
2023/04/23 01:47:18;;;;;;;;;22.50;21.25;;;;;11.52;72.26;99072.91;5094782;28;8818;-61
2023/04/23 01:49:46;;;;;;;;;26.00;20.50;;;;;11.51;72.35;99071.22;5094362;28;8828;-61
2023/04/23 01:52:14;;;;;;;;;18.75;15.50;;;;;11.51;72.49;99070.41;5096018;28;8814;-61
2023/04/23 01:54:42;;;;;;;;;22.25;19.00;;;;;11.51;72.17;99062.41;5095856;28;8822;-58
2023/04/23 01:57:10;;;;;;;;;19.50;18.00;;;;;11.50;71.89;99074.03;5095778;28;8871;-60
2023/04/23 01:59:38;;;;;;;;;26.75;24.75;;;;;11.48;71.86;99076.03;5095812;28;8848;-61
2023/04/23 02:02:09;;;;;;;;;15.25;14.75;;;;;11.46;72.48;99072.69;5096000;28;8838;-61
2023/04/23 02:04:37;;;;;;;;;18.50;17.50;;;;;11.44;72.24;99075.47;5096088;28;8830;-61
2023/04/23 02:07:05;;;;;;;;;20.50;16.00;;;;;11.43;72.11;99079.13;5095795;28;8983;-61
2023/04/23 02:09:33;;;;;;;;;15.25;14.50;;;;;11.42;72.54;99082.78;5095741;28;8839;-61
2023/04/23 02:12:01;;;;;;;;;25.50;24.50;;;;;11.41;72.23;99075.78;5095777;28;8822;-59
2023/04/23 02:14:28;;;;;;;;;13.25;12.75;;;;;11.40;71.86;99079.44;5096041;28;8841;-60
2023/04/23 02:16:56;;;;;;;;;16.00;13.50;;;;;11.37;72.57;99079.72;5095483;28;8818;-59
2023/04/23 02:19:24;;;;;;;;;20.25;16.25;;;;;11.36;72.50;99074.56;5095641;28;8862;-61
2023/04/23 02:21:51;;;;;;;;;16.25;16.25;;;;;11.34;72.61;99084.50;5096013;28;9492;-59
2023/04/23 02:24:19;;;;;;;;;18.50;18.00;;;;;11.31;72.67;99079.50;5097287;28;8852;-61
2023/04/23 02:26:47;;;;;;;;;22.75;20.00;;;;;11.29;72.54;99086.81;5099702;28;8916;-60
2023/04/23 02:29:15;;;;;;;;;20.50;16.25;;;;;11.25;72.28;99088.06;5099725;28;9507;-61
2023/04/23 02:31:43;;;;;;;;;18.50;16.50;;;;;11.21;72.37;99082.19;5099550;28;8869;-62
2023/04/23 02:34:11;;;;;;;;;14.25;13.00;;;;;11.18;72.26;99084.31;5099880;28;8806;-60
2023/04/23 02:36:38;;;;;;;;;19.25;14.25;;;;;11.15;72.76;99068.63;5099677;28;8850;-61
2023/04/23 02:39:11;;;;;;;;;13.50;13.50;;;;;11.13;72.46;99076.75;5099648;28;8824;-62
2023/04/23 02:41:39;;;;;;;;;16.00;16.00;;;;;11.10;72.55;99074.41;5099498;28;8838;-60
2023/04/23 02:44:06;;;;;;;;;19.75;16.75;;;;;11.09;72.87;99069.22;5100148;28;8822;-59
2023/04/23 02:46:36;;;;;;;;;17.00;15.25;;;;;11.06;72.51;99067.66;5099414;28;9464;-59
2023/04/23 02:49:03;;;;;;;;;13.50;12.25;;;;;11.04;72.77;99079.47;5098882;28;8880;-59
2023/04/23 02:51:31;;;;;;;;;16.25;16.00;;;;;11.00;72.64;99078.91;5098620;28;8887;-60
2023/04/23 02:53:59;;;;;;;;;21.00;17.75;;;;;10.95;73.16;99077.66;5099284;28;8810;-59
2023/04/23 02:56:27;;;;;;;;;19.00;18.25;;;;;10.90;72.74;99079.91;5099275;28;9504;-58
2023/04/23 02:58:54;;;;;;;;;12.75;12.75;;;;;10.85;73.40;99084.88;5099335;28;9540;-59
2023/04/23 03:01:22;;;;;;;;;12.50;11.50;;;;;10.79;73.06;99080.09;5099187;28;8830;-59
2023/04/23 03:03:50;;;;;;;;;12.75;11.00;;;;;10.73;73.23;99076.22;5098986;28;8834;-59
2023/04/23 03:06:18;;;;;;;;;14.00;13.00;;;;;10.68;73.58;99088.25;5099036;28;8903;-59
2023/04/23 03:08:45;;;;;;;;;15.50;12.75;;;;;10.63;73.22;99077.22;5099409;28;9476;-59
2023/04/23 03:11:13;;;;;;;;;19.25;17.50;;;;;10.59;73.86;99081.97;5098876;28;8883;-59
2023/04/23 03:13:41;;;;;;;;;16.00;12.50;;;;;10.56;73.27;99073.44;5099133;28;8836;-59
2023/04/23 03:16:08;;;;;;;;;20.50;17.00;;;;;10.51;73.57;99071.22;5098482;28;8806;-58
2023/04/23 03:18:36;;;;;;;;;9.25;8.00;;;;;10.47;73.74;99067.16;5099355;28;8830;-59
2023/04/23 03:21:04;;;;;;;;;16.00;16.00;;;;;10.47;73.51;99072.47;5098975;28;8836;-59
2023/04/23 03:23:32;;;;;;;;;7.00;6.25;;;;;10.47;73.36;99077.78;5099151;28;8818;-61
2023/04/23 03:25:59;;;;;;;;;18.00;15.50;;;;;10.48;73.44;99073.31;5098690;28;8830;-58
2023/04/23 03:28:27;;;;;;;;;14.00;13.50;;;;;10.48;73.42;99076.81;5098752;28;8833;-59
2023/04/23 03:30:55;;;;;;;;;17.00;15.75;;;;;10.50;73.58;99068.69;5098473;28;9716;-59
2023/04/23 03:33:23;;;;;;;;;15.00;13.25;;;;;10.51;73.67;99060.56;5098580;28;8921;-60
2023/04/23 03:35:50;;;;;;;;;16.00;14.00;;;;;10.50;73.21;99063.38;5098320;28;9456;-60
2023/04/23 03:38:18;;;;;;;;;11.75;11.50;;;;;10.47;73.40;99061.81;5097693;28;8818;-59
2023/04/23 03:40:45;;;;;;;;;20.00;18.00;;;;;10.44;73.54;99066.59;5098319;28;8806;-59
2023/04/23 03:43:14;;;;;;;;;13.50;12.50;;;;;10.36;73.81;99061.13;5098816;28;8837;-60
2023/04/23 03:45:42;;;;;;;;;15.75;14.00;;;;;10.28;73.86;99061.88;5098009;28;8841;-59
2023/04/23 03:48:09;;;;;;;;;12.00;11.50;;;;;10.21;73.68;99059.91;5098452;28;8896;-61
2023/04/23 03:50:39;;;;;;;;;14.75;13.75;;;;;10.14;73.88;99051.66;5097936;28;8876;-61
2023/04/23 03:53:08;;;;;;;;;22.00;18.25;;;;;10.10;73.95;99058.22;5097939;28;8825;-61
2023/04/23 03:55:36;;;;;;;;;12.00;12.00;;;;;10.06;74.10;99054.19;5098034;28;8837;-61
2023/04/23 03:58:04;;;;;;;;;12.00;12.00;;;;;10.03;74.20;99057.09;5097892;28;8865;-60
2023/04/23 04:00:31;;;;;;;;;15.25;12.50;;;;;10.01;74.23;99051.06;5098101;28;9495;-61
2023/04/23 04:03:00;;;;;;;;;17.00;16.00;;;;;10.00;74.24;99061.81;5097989;28;8818;-60
2023/04/23 04:05:29;;;;;;;;;9.25;9.00;;;;;9.98;73.91;99048.69;5097673;28;8840;-61
2023/04/23 04:07:57;;;;;;;;;19.00;17.00;;;;;10.01;73.83;99060.88;5097802;28;8864;-60
2023/04/23 04:10:25;;;;;;;;;15.25;13.50;;;;;10.03;73.91;99053.63;5097916;28;8814;-60
2023/04/23 04:12:54;;;;;;;;;10.00;10.00;;;;;10.06;73.62;99055.97;5097881;28;8907;-61
2023/04/23 04:15:21;;;;;;;;;14.33;10.00;;;;;10.06;73.92;99055.97;5097817;28;8830;-59
2023/04/23 04:17:49;;;;;;;;;16.50;15.75;;;;;10.04;73.98;99052.63;5097413;28;8825;-61
2023/04/23 04:20:17;;;;;;;;;9.50;8.25;;;;;10.02;73.97;99054.56;5098098;28;8838;-61
2023/04/23 04:22:45;;;;;;;;;20.75;18.25;;;;;9.98;73.74;99045.19;5097790;28;8830;-61
2023/04/23 04:25:13;;;;;;;;;9.75;9.75;;;;;9.93;74.03;99060.72;5097472;28;8818;-61
2023/04/23 04:27:42;;;;;;;;;9.25;8.00;;;;;9.87;74.19;99056.78;5097518;28;8825;-61
2023/04/23 04:30:10;;;;;;;;;6.00;5.50;;;;;9.86;74.01;99047.13;5097462;28;8849;-61
2023/04/23 04:32:39;;;;;;;;;12.00;12.00;;;;;9.89;73.74;99051.34;5097403;28;8818;-59
2023/04/23 04:35:07;;;;;;;;;12.25;10.50;;;;;9.93;73.83;99040.28;5097436;28;8826;-60
2023/04/23 04:37:35;;;;;;;;;14.75;9.25;;;;;10.00;73.82;99045.88;5097176;28;9023;-60
2023/04/23 04:40:03;;;;;;;;;16.00;13.00;;;;;10.06;73.69;99045.34;5097270;28;8901;-61
2023/04/23 04:42:31;;;;;;;;;15.75;14.50;;;;;10.14;73.34;99040.16;5096720;28;8814;-61
2023/04/23 04:44:59;;;;;;;;;15.25;15.00;;;;;10.22;73.31;99041.13;5097121;28;8825;-59
2023/04/23 04:47:27;;;;;;;;;13.00;11.50;;;;;10.28;72.96;99040.56;5095899;28;8830;-60
2023/04/23 04:49:56;;;;;;;;;19.00;17.00;;;;;10.36;72.84;99026.53;5096491;28;8829;-59
2023/04/23 04:52:24;;;;;;;;;16.00;15.25;;;;;10.44;72.86;99032.84;5096779;28;8818;-59
2023/04/23 04:54:52;;;;;;;;;12.00;11.50;;;;;10.48;72.27;99031.56;5096972;28;8818;-58
2023/04/23 04:57:21;;;;;;;;;17.50;15.50;;;;;10.53;72.44;99028.47;5097140;28;8822;-59
2023/04/23 04:59:49;;;;;;;;;10.25;8.00;;;;;10.57;72.28;99030.72;5097157;28;9469;-59
2023/04/23 05:02:16;;;;;;;;;13.75;12.50;;;;;10.60;72.42;99030.41;5096777;28;8811;-60
2023/04/23 05:04:44;;;;;;;;;15.75;12.75;;;;;10.64;72.01;99026.50;5096917;28;9665;-61
2023/04/23 05:07:12;;;;;;;;;14.00;12.50;;;;;10.66;72.14;99021.00;5097062;28;8810;-60
2023/04/23 05:09:40;;;;;;;;;13.50;13.50;;;;;10.69;71.82;99023.38;5096827;28;8802;-60
2023/04/23 05:12:11;;;;;;;;;7.50;6.00;;;;;10.68;72.40;99022.53;5096475;28;8914;-60
2023/04/23 05:14:38;;;;;;;;;21.75;16.00;;;;;10.66;71.97;99023.66;5096413;28;8826;-60
2023/04/23 05:17:06;;;;;;;;;18.75;16.00;;;;;10.63;72.40;99026.63;5095809;28;8925;-59
2023/04/23 05:19:34;;;;;;;;;13.00;12.00;;;;;10.60;72.28;99026.91;5095341;28;8845;-61
2023/04/23 05:22:02;;;;;;;;;18.75;16.50;;;;;10.55;72.53;99026.50;5095149;28;8841;-60
2023/04/23 05:24:30;;;;;;;;;13.50;13.50;;;;;10.50;72.66;99024.28;5094665;28;8856;-61
2023/04/23 05:26:57;;;;;;;;;16.00;15.00;;;;;10.46;73.15;99028.22;5094686;28;8852;-61
2023/04/23 05:29:25;;;;;;;;;14.50;13.50;;;;;10.42;72.83;99037.47;5094899;28;8865;-61
2023/04/23 05:31:53;;;;;;;;;10.50;10.00;;;;;10.39;73.27;99029.75;5095213;28;8844;-61
2023/04/23 05:34:21;;;;;;;;;15.25;12.50;;;;;10.40;72.86;99030.63;5095930;28;9545;-61
2023/04/23 05:36:49;;;;;;;;;9.75;9.50;;;;;10.48;72.81;99036.88;5095744;28;8822;-61
2023/04/23 05:39:16;;;;;;;;;12.25;10.50;;;;;10.53;72.63;99029.31;5095962;28;8821;-61
2023/04/23 05:41:44;;;;;;;;;15.25;12.75;;;;;10.62;72.09;99031.09;5096036;28;8814;-62
2023/04/23 05:44:12;;;;;;;;;15.00;11.25;;;;;10.73;71.98;99022.94;5096660;28;8864;-61
2023/04/23 05:46:40;;;;;;;;;14.00;13.75;;;;;10.88;71.94;99029.47;5096076;28;9475;-59
2023/04/23 05:49:07;;;;;;;;;15.25;14.50;;;;;11.07;71.52;99039.22;5096651;28;9473;-58
2023/04/23 05:51:35;;;;;;;;;12.50;11.50;;;;;11.24;70.95;99041.91;5095717;28;8912;-58
2023/04/23 05:54:02;;;;;;;;;14.25;11.00;;;;;11.41;70.88;99038.47;5095236;28;8817;-59
2023/04/23 05:56:31;;;;;;;;;8.50;8.50;;;;;11.58;70.97;99035.03;5094342;28;8853;-59
2023/04/23 05:58:59;;;;;;;;;12.25;12.25;;;;;11.73;70.36;99035.31;5095528;28;8822;-61
2023/04/23 06:01:27;;;;;;;;;14.50;13.00;;;;;11.88;70.15;99032.00;5098839;28;8888;-59
2023/04/23 06:03:55;;;;;;;;;15.00;15.00;;;;;12.05;69.59;99028.47;5099178;28;9562;-60
2023/04/23 06:06:23;;;;;;;;;18.25;16.00;;;;;12.21;69.54;99023.25;5099193;28;8865;-59
2023/04/23 06:08:51;;;;;;;;;17.25;15.00;;;;;12.39;68.93;99021.44;5098205;28;8914;-59
2023/04/23 06:11:20;;;;;;;;;16.50;15.25;;;;;12.59;68.86;99014.88;5098466;28;9492;-59
2023/04/23 06:13:47;;;;;;;;;21.50;19.00;;;;;12.78;68.33;99020.84;5098706;28;8833;-59
2023/04/23 06:16:15;;;;;;;;;14.00;12.00;;;;;12.99;67.88;99017.81;5098666;28;8841;-58
2023/04/23 06:18:43;;;;;;;;;13.50;12.25;;;;;13.18;67.89;99020.22;5099134;28;8852;-59
2023/04/23 06:21:11;;;;;;;;;12.75;12.25;;;;;13.27;67.92;99020.09;5098937;28;8833;-59
2023/04/23 06:23:39;;;;;;;;;16.25;15.25;;;;;13.28;67.85;99021.78;5099201;28;8844;-59
2023/04/23 06:26:07;;;;;;;;;12.75;12.25;;;;;13.28;68.26;99028.97;5099490;28;8865;-59
2023/04/23 06:28:34;;;;;;;;;13.00;12.75;;;;;13.28;68.14;99027.13;5097876;28;8826;-59
2023/04/23 06:31:02;;;;;;;;;8.00;6.00;;;;;13.33;67.78;99018.63;5098128;28;8834;-59
2023/04/23 06:33:30;;;;;;;;;17.50;15.00;;;;;13.43;67.58;99022.00;5097493;28;8834;-62
2023/04/23 06:35:58;;;;;;;;;11.25;11.00;;;;;13.57;67.55;99021.34;5098464;28;9531;-59
2023/04/23 06:38:26;;;;;;;;;17.50;13.50;;;;;13.67;67.48;99011.38;5098579;28;8886;-59
2023/04/23 06:40:54;;;;;;;;;12.75;11.25;;;;;13.78;67.14;99009.22;5098580;28;8840;-59
2023/04/23 06:43:22;;;;;;;;;15.75;12.50;;;;;13.88;66.79;99009.06;5099076;28;9499;-61
2023/04/23 06:45:50;;;;;;;;;15.50;13.25;;;;;13.96;66.47;99009.91;5099361;28;8840;-59
2023/04/23 06:48:17;;;;;;;;;16.50;15.75;;;;;14.05;67.08;99000.84;5099499;28;8857;-59
2023/04/23 06:50:46;;;;;;;;;12.75;12.25;;;;;14.22;66.48;98996.38;5099405;28;8865;-62
2023/04/23 06:53:14;;;;;;;;;9.00;9.00;;;;;14.41;66.35;98993.38;5099001;28;8834;-61
2023/04/23 06:55:41;;;;;;;;;9.25;7.25;;;;;14.56;65.85;98983.63;5099120;28;8837;-59
2023/04/23 06:58:10;;;;;;;;;14.75;13.00;;;;;14.72;66.25;98984.41;5099085;28;8829;-61
2023/04/23 07:00:40;;;;;;;;;12.75;12.50;;;;;14.85;65.32;98986.53;5098975;28;8822;-59
2023/04/23 07:03:08;;;;;;;;;14.50;13.50;;;;;14.95;65.36;98981.84;5098569;28;8810;-59
2023/04/23 07:05:36;;;;;;;;;12.00;12.00;;;;;15.01;65.18;98986.53;5098492;28;8818;-61
2023/04/23 07:08:03;;;;;;;;;15.25;13.00;;;;;15.04;65.29;98987.00;5097868;28;8826;-59
2023/04/23 07:10:32;;;;;;;;;14.00;11.25;;;;;15.14;65.35;98981.41;5096965;28;8864;-59
2023/04/23 07:13:00;;;;;;;;;13.00;12.50;;;;;15.23;65.69;98991.09;5097160;28;8856;-59
2023/04/23 07:15:28;;;;;;;;;14.50;12.25;;;;;15.25;65.18;98986.41;5097148;28;8830;-60
2023/04/23 07:17:56;;;;;;;;;14.00;14.00;;;;;15.28;64.91;98986.91;5097744;28;8826;-60
2023/04/23 07:20:23;;;;;;;;;9.00;9.00;;;;;15.33;65.30;98984.53;5097247;28;8844;-60
2023/04/23 07:22:51;;;;;;;;;12.00;12.00;;;;;15.39;65.34;98983.84;5096723;28;8815;-59
2023/04/23 07:25:21;;;;;;;;;12.00;12.00;;;;;15.44;65.08;98976.13;5097027;28;8945;-61
2023/04/23 07:27:49;;;;;;;;;13.00;13.00;;;;;15.50;65.42;98985.31;5097945;28;8830;-61
2023/04/23 07:30:16;;;;;;;;;12.00;10.00;;;;;15.54;65.41;98978.59;5097083;28;8856;-59
2023/04/23 07:32:44;;;;;;;;;15.50;12.75;;;;;15.60;65.28;98975.16;5097998;28;8818;-60
2023/04/23 07:35:12;;;;;;;;;12.50;11.00;;;;;15.61;65.06;98983.06;5097112;28;8826;-60
2023/04/23 07:37:40;;;;;;;;;9.50;7.00;;;;;15.60;65.51;98978.69;5098068;28;8826;-60
2023/04/23 07:40:08;;;;;;;;;11.75;11.25;;;;;15.59;65.33;98977.03;5096874;28;8836;-59
2023/04/23 07:42:36;;;;;;;;;12.50;10.00;;;;;15.58;65.67;98971.84;5097161;28;8822;-59
2023/04/23 07:45:04;;;;;;;;;12.00;10.00;;;;;15.60;65.34;98978.69;5096940;28;8900;-59
2023/04/23 07:47:34;;;;;;;;;12.25;10.50;;;;;15.62;65.82;98976.66;5097856;28;8998;-60
2023/04/23 07:50:02;;;;;;;;;13.00;12.00;;;;;15.58;65.98;98972.69;5097660;28;8818;-59
2023/04/23 07:52:30;;;;;;;;;15.50;15.00;;;;;15.56;65.55;98973.88;5097021;28;8820;-59
2023/04/23 07:54:58;;;;;;;;;10.00;9.25;;;;;15.60;65.84;98969.81;5096913;28;8823;-59
2023/04/23 07:57:25;;;;;;;;;11.00;10.00;;;;;15.82;65.12;98963.63;5096339;28;8810;-59
2023/04/23 07:59:53;;;;;;;;;9.50;9.50;;;;;16.05;64.71;98964.44;5095769;28;8834;-58
2023/04/23 08:02:24;;;;;;;;;11.00;8.25;;;;;16.15;64.95;98957.81;5096107;28;8830;-61
2023/04/23 08:04:52;;;;;;;;;9.00;8.00;;;;;16.22;64.99;98960.63;5096077;28;8841;-59
2023/04/23 08:07:21;;;;;;;;;12.50;11.00;;;;;16.22;64.70;98957.94;5095742;28;8822;-59
2023/04/23 08:09:49;;;;;;;;;13.25;12.75;;;;;16.24;64.51;98959.41;5096107;28;8834;-59
2023/04/23 08:12:17;;;;;;;;;11.00;11.00;;;;;16.22;64.42;98964.13;5096296;28;8845;-61
2023/04/23 08:14:46;;;;;;;;;9.25;9.00;;;;;16.15;64.17;98965.88;5096666;28;8857;-62
2023/04/23 08:17:13;;;;;;;;;13.00;12.00;;;;;16.18;64.64;98960.97;5096529;28;8822;-59
2023/04/23 08:19:41;;;;;;;;;12.00;10.00;;;;;16.30;64.32;98951.47;5096748;28;8840;-62
2023/04/23 08:22:10;;;;;;;;;12.00;12.00;;;;;16.36;63.91;98953.44;5096223;28;8825;-62
2023/04/23 08:24:38;;;;;;;;;9.50;8.00;;;;;16.36;64.16;98944.53;5097062;28;8919;-61
2023/04/23 08:27:06;;;;;;;;;15.75;15.00;;;;;16.37;64.36;98935.47;5097050;28;8842;-61
2023/04/23 08:29:34;;;;;;;;;12.50;11.50;;;;;16.41;64.24;98942.97;5096565;28;8932;-61
2023/04/23 08:32:02;;;;;;;;;12.00;11.50;;;;;16.53;63.61;98937.97;5096577;28;8842;-62
2023/04/23 08:34:30;;;;;;;;;10.00;9.25;;;;;16.69;63.58;98935.13;5096461;28;8980;-62
2023/04/23 08:36:59;;;;;;;;;14.00;13.00;;;;;16.76;63.08;98928.81;5096350;28;9514;-62
2023/04/23 08:39:29;;;;;;;;;12.25;12.25;;;;;16.71;63.36;98931.22;5096351;28;8847;-59
2023/04/23 08:41:57;;;;;;;;;12.50;12.00;;;;;16.80;62.92;98929.28;5096383;28;8830;-59
2023/04/23 08:44:25;;;;;;;;;14.50;12.50;;;;;16.98;62.80;98927.88;5096666;28;9600;-62
2023/04/23 08:46:52;;;;;;;;;11.50;11.50;;;;;17.25;62.54;98921.78;5096061;28;8922;-61
2023/04/23 08:49:20;;;;;;;;;13.00;12.00;;;;;17.47;61.38;98922.72;5096643;28;9492;-61
2023/04/23 08:51:48;;;;;;;;;8.20;7.80;;;;;17.55;61.74;98928.81;5095885;28;8899;-62
2023/04/23 08:54:17;;;;;;;;;7.80;7.00;;;;;17.74;61.24;98924.66;5096225;28;8818;-61
2023/04/23 08:56:44;;;;;;;;;13.80;11.20;;;;;17.95;60.85;98932.72;5095861;28;8841;-61
2023/04/23 08:59:12;;;;;;;;;9.20;7.00;;;;;18.00;60.86;98939.19;5095563;28;8825;-60
2023/04/23 09:01:40;;;;;;;;;6.00;6.00;;;;;18.13;60.21;98936.63;5094956;28;8852;-61
2023/04/23 09:04:09;;;;;;;;;10.00;9.00;;;;;18.29;59.67;98936.34;5095076;28;8841;-61
2023/04/23 09:06:36;;;;;;;;;7.80;6.40;;;;;18.48;59.77;98933.00;5094601;28;9492;-61
2023/04/23 09:09:05;;;;;;;;;7.00;6.00;;;;;18.57;58.87;98925.59;5094030;28;8919;-60
2023/04/23 09:11:34;;;;;;;;;7.80;7.00;;;;;18.53;58.89;98927.84;5093915;28;8822;-61
2023/04/23 09:14:01;;;;;;;;;7.00;7.00;;;;;18.52;59.14;98920.78;5094500;28;9892;-61
2023/04/23 09:16:30;;;;;;;;;5.00;4.80;;;;;18.61;59.05;98919.59;5095079;28;8840;-62
2023/04/23 09:18:58;;;;;;;;;6.40;5.20;;;;;18.70;58.31;98915.75;5095505;28;8907;-60
2023/04/23 09:21:25;;;;;;;;;6.60;6.40;;;;;18.77;58.08;98919.31;5094959;28;8810;-62
2023/04/23 09:23:53;;;;;;;;;7.20;6.80;;;;;18.83;58.47;98923.06;5095204;28;8818;-62
2023/04/23 09:26:22;;;;;;;;;7.00;7.00;;;;;19.01;57.47;98913.41;5096161;28;8842;-61
2023/04/23 09:28:50;;;;;;;;;6.00;6.00;;;;;19.05;57.30;98917.38;5096223;28;8845;-61
2023/04/23 09:31:18;;;;;;;;;4.00;3.40;;;;;19.07;57.27;98909.91;5095839;28;8838;-60
2023/04/23 09:33:46;;;;;;;;;4.00;4.00;;;;;19.12;57.44;98907.44;5095546;28;9471;-61
2023/04/23 09:36:14;;;;;;;;;6.20;6.20;;;;;19.08;57.81;98908.03;5095615;28;8838;-59
2023/04/23 09:38:43;;;;;;;;;6.00;5.80;;;;;18.94;58.04;98899.06;5095297;28;8858;-59
2023/04/23 09:41:11;;;;;;;;;6.40;6.40;;;;;18.89;57.82;98898.81;5095305;28;8809;-62
2023/04/23 09:43:39;;;;;;;;;6.20;6.00;;;;;18.90;57.88;98900.47;5095199;28;8834;-59
2023/04/23 09:46:07;;;;;;;;;4.00;4.00;;;;;19.28;57.12;98892.78;5095355;28;8837;-62
2023/04/23 09:48:34;;;;;;;;;4.80;4.40;;;;;19.69;56.20;98891.66;5095031;28;8846;-62
2023/04/23 09:51:03;;;;;;;;;6.60;6.60;;;;;20.19;55.67;98891.06;5094829;28;8854;-61
2023/04/23 09:53:30;;;;;;;;;5.20;4.60;;;;;20.52;54.91;98883.78;5094381;28;8848;-59
2023/04/23 09:55:58;;;;;;;;;4.60;4.60;;;;;21.19;53.76;98870.69;5092956;28;8895;-61
2023/04/23 09:58:26;;;;;;;;;1.80;1.00;;;;;21.97;52.55;98870.22;5092681;28;8826;-60
2023/04/23 10:00:55;;;;;;;;;2.80;2.80;;;;;22.40;51.38;98881.97;5092699;28;8984;-59
2023/04/23 10:03:23;;;;;;;;;4.20;4.20;;;;;22.80;50.80;98883.25;5093382;28;8829;-59
2023/04/23 10:05:51;;;;;;;;;3.80;2.40;;;;;23.27;50.26;98871.63;5093715;28;8861;-61
2023/04/23 10:08:28;;;;;;;;;4.80;4.00;;;;;23.85;48.87;98883.56;5092655;28;8952;-60
2023/04/23 10:10:56;;;;;;;;;4.80;4.80;;;;;24.12;47.94;98860.38;5094109;28;8907;-62
2023/04/23 10:13:44;;;;;;;;;4.40;4.00;;;;;24.33;48.25;98874.22;5094405;28;8858;-62
2023/04/23 10:16:12;;;;;;;;;4.60;4.60;;;;;24.73;47.74;98869.75;5094558;28;8830;-60
2023/04/23 10:18:49;;;;;;;;;4.00;4.00;;;;;24.69;47.41;98867.75;5093786;28;8818;-62
2023/04/23 10:21:17;;;;;;;;;4.40;4.00;;;;;24.11;47.45;98875.84;5092186;28;8838;-62
2023/04/23 10:23:46;;;;;;;;;4.60;4.60;;;;;24.27;47.60;98874.34;5094933;28;8838;-60
2023/04/23 10:26:14;;;;;;;;;3.00;2.20;;;;;24.40;47.16;98871.38;5094894;28;8944;-60
2023/04/23 10:28:41;;;;;;;;;2.00;2.00;;;;;24.16;47.47;98876.00;5094694;28;8974;-62
2023/04/23 10:31:09;;;;;;;;;4.00;4.00;;;;;23.42;48.07;98878.34;5094460;28;8934;-61
2023/04/23 10:33:37;;;;;;;;;4.60;4.60;;;;;22.66;49.70;98892.56;5094250;28;8838;-60
2023/04/23 10:36:24;;;;;;;;;2.80;2.00;;;;;22.07;49.97;98873.25;5094338;28;9503;-61
2023/04/23 10:38:53;;;;;;;;;1.40;1.40;;;;;21.78;50.10;98882.06;5093915;28;8964;-61
2023/04/23 10:41:26;;;;;;;;;4.00;3.60;;;;;21.58;50.09;98870.47;5093532;28;8879;-61
2023/04/23 10:43:54;;;;;;;;;4.00;4.00;;;;;21.50;50.10;98871.53;5094073;28;8893;-60
2023/04/23 10:46:23;;;;;;;;;3.60;3.60;;;;;21.65;49.66;98855.84;5096410;28;8826;-62
2023/04/23 10:48:50;;;;;;;;;1.00;1.00;;;;;21.65;49.21;98857.72;5097363;28;8830;-59
2023/04/23 10:51:18;;;;;;;;;5.00;4.20;;;;;21.37;50.01;98849.13;5096699;28;8971;-60
2023/04/23 10:53:58;;;;;;;;;4.20;4.20;;;;;20.95;50.41;98849.75;5096496;28;8826;-59
2023/04/23 10:56:26;;;;;;;;;4.00;2.80;;;;;20.71;50.60;98850.41;5096827;28;8830;-62
2023/04/23 10:58:54;;;;;;;;;5.00;5.00;;;;;20.75;50.23;98843.53;5096819;28;9502;-61
2023/04/23 11:01:22;;;;;;;;;4.00;3.60;;;;;20.87;49.64;98851.88;5096197;28;8969;-61
2023/04/23 11:03:50;;;;;;;;;1.00;1.00;;;;;20.87;49.73;98841.88;5096462;28;8814;-62
2023/04/23 11:06:18;;;;;;;;;5.40;5.40;;;;;20.67;50.23;98843.78;5096501;28;8825;-59
2023/04/23 11:08:47;;;;;;;;;3.60;3.60;;;;;20.52;50.14;98840.50;5097338;28;8926;-60
2023/04/23 11:11:15;;;;;;;;;4.40;4.00;;;;;20.43;50.41;98843.63;5097397;28;8844;-62
2023/04/23 11:13:44;;;;;;;;;4.00;4.00;;;;;20.31;50.82;98824.50;5097254;28;8918;-62
2023/04/23 11:16:12;;;;;;;;;3.20;2.00;;;;;20.21;50.52;98834.94;5097321;28;9547;-61
2023/04/23 11:18:40;;;;;;;;;4.00;4.00;;;;;20.16;50.94;98837.44;5097632;28;8838;-62
2023/04/23 11:21:07;;;;;;;;;4.40;4.20;;;;;20.08;50.52;98829.53;5096736;28;8838;-60
2023/04/23 11:23:36;;;;;;;;;4.80;4.80;;;;;20.00;50.61;98832.44;5097116;28;8903;-61
2023/04/23 11:26:04;;;;;;;;;5.00;5.00;;;;;19.92;50.89;98821.81;5096909;28;8817;-62
2023/04/23 11:28:32;;;;;;;;;5.00;4.20;;;;;20.13;50.57;98820.78;5096885;28;8865;-60
2023/04/23 11:31:00;;;;;;;;;4.00;4.00;;;;;20.47;49.32;98820.53;5097088;28;8846;-62
2023/04/23 11:33:28;;;;;;;;;2.00;2.00;;;;;20.77;49.14;98814.38;5095925;28;8830;-61
2023/04/23 11:35:56;;;;;;;;;5.40;4.00;;;;;21.12;48.20;98810.31;5094737;28;8948;-60